YBBN/BNE METAR and TAF weather

Enter ICAO airport designator
Station Type Date Time Source
YBBN METAR 2019/08/17 10:30 UTC NOAA

YBBN 171030Z 34005KT CAVOK 16/13 Q1018 NOSIG


Station Type Date Time Source
YBBN Decoded METAR 2019/08/17 10:30 UTC NOAA

Station name not available
Aug 17, 2019 - 06:30 AM EDT / 2019.08.17 1030 UTC
Wind: from the NNW (340 degrees) at 6 MPH (5 KT):0
Visibility: greater than 7 mile(s):0
Temperature: 60 F (16 C)
Dew Point: 55 F (13 C)
Relative Humidity: 82%
Pressure (altimeter): 30.06 in. Hg (1018 hPa)
ob: YBBN 171030Z 34005KT CAVOK 16/13 Q1018 NOSIG
cycle: 10

Station Type Date Time Source
YBBN TAF 2019/08/17 06:40 UTC NOAA

TAF YBBN 170507Z 1706/1812 02010KT CAVOK
FM170900 34009KT CAVOK
FM171500 19004KT 9999 SCT015
FM180200 06008KT 9999 FEW025

Example: see airport list